sensor_id;sensor_type;location;lat;lon;timestamp;temperature;humidity
56478;DHT22;42382;53.210;5.772;2022-10-17T00:01:59;13.00;83.60
56478;DHT22;42382;53.210;5.772;2022-10-17T00:04:25;13.00;83.60
56478;DHT22;42382;53.210;5.772;2022-10-17T00:06:50;13.00;83.60
56478;DHT22;42382;53.210;5.772;2022-10-17T00:09:16;13.00;83.60
56478;DHT22;42382;53.210;5.772;2022-10-17T00:11:41;13.00;83.60
56478;DHT22;42382;53.210;5.772;2022-10-17T00:14:07;13.00;83.70
56478;DHT22;42382;53.210;5.772;2022-10-17T00:16:34;13.00;83.60
56478;DHT22;42382;53.210;5.772;2022-10-17T00:19:04;13.00;83.70
56478;DHT22;42382;53.210;5.772;2022-10-17T00:21:30;13.00;83.70
56478;DHT22;42382;53.210;5.772;2022-10-17T00:23:56;13.00;83.70
56478;DHT22;42382;53.210;5.772;2022-10-17T00:26:21;13.10;83.80
56478;DHT22;42382;53.210;5.772;2022-10-17T00:28:49;13.10;83.80
56478;DHT22;42382;53.210;5.772;2022-10-17T00:31:17;13.10;83.90
56478;DHT22;42382;53.210;5.772;2022-10-17T00:33:43;13.10;83.90
56478;DHT22;42382;53.210;5.772;2022-10-17T00:36:23;13.10;83.90
56478;DHT22;42382;53.210;5.772;2022-10-17T00:38:52;13.20;84.00
56478;DHT22;42382;53.210;5.772;2022-10-17T00:41:20;13.20;84.00
56478;DHT22;42382;53.210;5.772;2022-10-17T00:46:21;13.20;84.10
56478;DHT22;42382;53.210;5.772;2022-10-17T00:48:53;13.20;84.20
56478;DHT22;42382;53.210;5.772;2022-10-17T00:51:21;13.30;84.30
56478;DHT22;42382;53.210;5.772;2022-10-17T00:53:49;13.30;84.30
56478;DHT22;42382;53.210;5.772;2022-10-17T00:56:17;13.30;84.30
56478;DHT22;42382;53.210;5.772;2022-10-17T00:58:43;13.40;84.40
56478;DHT22;42382;53.210;5.772;2022-10-17T01:01:09;13.40;84.30
56478;DHT22;42382;53.210;5.772;2022-10-17T01:03:35;13.40;84.40
56478;DHT22;42382;53.210;5.772;2022-10-17T01:06:00;13.40;84.40
56478;DHT22;42382;53.210;5.772;2022-10-17T01:08:26;13.50;84.40
56478;DHT22;42382;53.210;5.772;2022-10-17T01:11:21;13.50;84.20
56478;DHT22;42382;53.210;5.772;2022-10-17T01:14:00;13.50;84.20
56478;DHT22;42382;53.210;5.772;2022-10-17T01:27:09;13.60;84.50
56478;DHT22;42382;53.210;5.772;2022-10-17T01:32:44;13.60;84.60
56478;DHT22;42382;53.210;5.772;2022-10-17T01:37:55;13.50;84.80
56478;DHT22;42382;53.210;5.772;2022-10-17T01:40:41;13.50;84.90
56478;DHT22;42382;53.210;5.772;2022-10-17T01:43:24;13.50;84.90
56478;DHT22;42382;53.210;5.772;2022-10-17T01:45:58;13.50;84.90
56478;DHT22;42382;53.210;5.772;2022-10-17T01:48:35;13.40;85.10
56478;DHT22;42382;53.210;5.772;2022-10-17T01:51:17;13.40;85.20
56478;DHT22;42382;53.210;5.772;2022-10-17T01:53:53;13.40;85.30
56478;DHT22;42382;53.210;5.772;2022-10-17T01:56:21;13.40;85.40
56478;DHT22;42382;53.210;5.772;2022-10-17T01:58:52;13.40;85.30
56478;DHT22;42382;53.210;5.772;2022-10-17T02:01:20;13.40;85.50
56478;DHT22;42382;53.210;5.772;2022-10-17T02:03:48;13.40;85.60
56478;DHT22;42382;53.210;5.772;2022-10-17T02:06:15;13.40;85.80
56478;DHT22;42382;53.210;5.772;2022-10-17T02:08:43;13.30;85.80
56478;DHT22;42382;53.210;5.772;2022-10-17T02:13:49;13.30;86.00
56478;DHT22;42382;53.210;5.772;2022-10-17T02:19:31;13.20;86.20
56478;DHT22;42382;53.210;5.772;2022-10-17T02:28:20;13.20;86.50
56478;DHT22;42382;53.210;5.772;2022-10-17T02:30:54;13.20;86.50
56478;DHT22;42382;53.210;5.772;2022-10-17T02:33:26;13.20;86.60
56478;DHT22;42382;53.210;5.772;2022-10-17T02:35:57;13.20;86.80
56478;DHT22;42382;53.210;5.772;2022-10-17T02:38:24;13.20;86.90
56478;DHT22;42382;53.210;5.772;2022-10-17T02:40:52;13.20;87.00
56478;DHT22;42382;53.210;5.772;2022-10-17T02:43:19;13.20;87.00
56478;DHT22;42382;53.210;5.772;2022-10-17T02:45:46;13.20;87.10
56478;DHT22;42382;53.210;5.772;2022-10-17T02:48:36;13.20;87.20
56478;DHT22;42382;53.210;5.772;2022-10-17T02:51:22;13.20;87.40
56478;DHT22;42382;53.210;5.772;2022-10-17T02:56:41;13.20;87.40
56478;DHT22;42382;53.210;5.772;2022-10-17T02:59:09;13.20;87.50
56478;DHT22;42382;53.210;5.772;2022-10-17T03:01:36;13.30;87.70
56478;DHT22;42382;53.210;5.772;2022-10-17T03:04:10;13.20;87.60
56478;DHT22;42382;53.210;5.772;2022-10-17T03:06:36;13.20;87.70
56478;DHT22;42382;53.210;5.772;2022-10-17T03:09:03;13.20;87.70
56478;DHT22;42382;53.210;5.772;2022-10-17T03:11:28;13.30;87.90
56478;DHT22;42382;53.210;5.772;2022-10-17T03:13:54;13.30;87.80
56478;DHT22;42382;53.210;5.772;2022-10-17T03:16:19;13.20;87.80
56478;DHT22;42382;53.210;5.772;2022-10-17T03:18:45;13.20;87.90
56478;DHT22;42382;53.210;5.772;2022-10-17T03:21:10;13.20;88.10
56478;DHT22;42382;53.210;5.772;2022-10-17T03:23:36;13.30;88.10
56478;DHT22;42382;53.210;5.772;2022-10-17T03:26:03;13.30;88.00
56478;DHT22;42382;53.210;5.772;2022-10-17T03:28:29;13.20;88.20
56478;DHT22;42382;53.210;5.772;2022-10-17T03:30:55;13.30;88.30
56478;DHT22;42382;53.210;5.772;2022-10-17T03:33:20;13.20;88.30
56478;DHT22;42382;53.210;5.772;2022-10-17T03:35:46;13.20;88.40
56478;DHT22;42382;53.210;5.772;2022-10-17T03:38:11;13.20;88.50
56478;DHT22;42382;53.210;5.772;2022-10-17T03:40:37;13.20;88.70
56478;DHT22;42382;53.210;5.772;2022-10-17T03:43:02;13.30;88.70
56478;DHT22;42382;53.210;5.772;2022-10-17T03:45:28;13.30;88.70
56478;DHT22;42382;53.210;5.772;2022-10-17T03:47:54;13.30;88.70
56478;DHT22;42382;53.210;5.772;2022-10-17T03:50:19;13.30;88.80
56478;DHT22;42382;53.210;5.772;2022-10-17T03:52:46;13.30;88.90
56478;DHT22;42382;53.210;5.772;2022-10-17T03:55:13;13.30;89.00
56478;DHT22;42382;53.210;5.772;2022-10-17T03:57:38;13.40;88.90
56478;DHT22;42382;53.210;5.772;2022-10-17T04:00:04;13.40;89.10
56478;DHT22;42382;53.210;5.772;2022-10-17T04:02:30;13.30;89.10
56478;DHT22;42382;53.210;5.772;2022-10-17T04:04:55;13.40;89.20
56478;DHT22;42382;53.210;5.772;2022-10-17T04:07:21;13.40;89.20
56478;DHT22;42382;53.210;5.772;2022-10-17T04:09:46;13.40;89.20
56478;DHT22;42382;53.210;5.772;2022-10-17T04:12:12;13.40;89.10
56478;DHT22;42382;53.210;5.772;2022-10-17T04:14:38;13.30;89.30
56478;DHT22;42382;53.210;5.772;2022-10-17T04:17:04;13.30;89.40
56478;DHT22;42382;53.210;5.772;2022-10-17T04:19:29;13.30;89.30
56478;DHT22;42382;53.210;5.772;2022-10-17T04:21:55;13.40;89.60
56478;DHT22;42382;53.210;5.772;2022-10-17T04:24:21;13.30;89.60
56478;DHT22;42382;53.210;5.772;2022-10-17T04:26:49;13.40;89.70
56478;DHT22;42382;53.210;5.772;2022-10-17T04:29:15;13.40;89.80
56478;DHT22;42382;53.210;5.772;2022-10-17T04:31:41;13.40;89.80
56478;DHT22;42382;53.210;5.772;2022-10-17T04:34:06;13.50;90.00
56478;DHT22;42382;53.210;5.772;2022-10-17T04:36:32;13.50;90.00
56478;DHT22;42382;53.210;5.772;2022-10-17T04:38:59;13.40;90.00
56478;DHT22;42382;53.210;5.772;2022-10-17T04:41:27;13.50;90.10
56478;DHT22;42382;53.210;5.772;2022-10-17T04:43:53;13.50;90.10
56478;DHT22;42382;53.210;5.772;2022-10-17T04:46:19;13.50;90.20
56478;DHT22;42382;53.210;5.772;2022-10-17T04:48:45;13.50;89.90
56478;DHT22;42382;53.210;5.772;2022-10-17T04:51:12;13.60;90.00
56478;DHT22;42382;53.210;5.772;2022-10-17T04:53:40;13.60;90.10
56478;DHT22;42382;53.210;5.772;2022-10-17T04:56:18;13.60;90.10
56478;DHT22;42382;53.210;5.772;2022-10-17T04:58:44;13.60;90.20
56478;DHT22;42382;53.210;5.772;2022-10-17T05:01:18;13.70;90.20
56478;DHT22;42382;53.210;5.772;2022-10-17T05:03:44;13.70;90.20
56478;DHT22;42382;53.210;5.772;2022-10-17T05:06:12;13.70;90.30
56478;DHT22;42382;53.210;5.772;2022-10-17T05:08:39;13.70;90.40
56478;DHT22;42382;53.210;5.772;2022-10-17T05:11:13;13.70;90.60
56478;DHT22;42382;53.210;5.772;2022-10-17T05:13:39;13.70;90.50
56478;DHT22;42382;53.210;5.772;2022-10-17T05:16:05;13.80;90.50
56478;DHT22;42382;53.210;5.772;2022-10-17T05:18:30;13.80;90.50
56478;DHT22;42382;53.210;5.772;2022-10-17T05:20:56;13.90;90.50
56478;DHT22;42382;53.210;5.772;2022-10-17T05:23:22;13.90;90.50
56478;DHT22;42382;53.210;5.772;2022-10-17T05:25:52;13.90;90.50
56478;DHT22;42382;53.210;5.772;2022-10-17T05:28:18;13.90;90.60
56478;DHT22;42382;53.210;5.772;2022-10-17T05:30:43;13.90;90.50
56478;DHT22;42382;53.210;5.772;2022-10-17T05:33:09;13.90;90.50
56478;DHT22;42382;53.210;5.772;2022-10-17T05:35:35;13.90;90.50
56478;DHT22;42382;53.210;5.772;2022-10-17T05:38:00;13.90;90.50
56478;DHT22;42382;53.210;5.772;2022-10-17T05:40:26;14.00;90.90
56478;DHT22;42382;53.210;5.772;2022-10-17T05:42:52;13.90;90.80
56478;DHT22;42382;53.210;5.772;2022-10-17T05:45:17;13.90;90.90
56478;DHT22;42382;53.210;5.772;2022-10-17T05:47:43;14.10;91.00
56478;DHT22;42382;53.210;5.772;2022-10-17T05:50:08;14.00;91.00
56478;DHT22;42382;53.210;5.772;2022-10-17T05:52:35;14.00;91.00
56478;DHT22;42382;53.210;5.772;2022-10-17T05:55:00;14.10;91.20
56478;DHT22;42382;53.210;5.772;2022-10-17T05:57:26;14.10;91.20
56478;DHT22;42382;53.210;5.772;2022-10-17T05:59:52;14.20;91.40
56478;DHT22;42382;53.210;5.772;2022-10-17T06:02:18;14.20;91.30
56478;DHT22;42382;53.210;5.772;2022-10-17T06:04:43;14.20;91.10
56478;DHT22;42382;53.210;5.772;2022-10-17T06:07:13;14.20;91.30
56478;DHT22;42382;53.210;5.772;2022-10-17T06:09:39;14.30;91.40
56478;DHT22;42382;53.210;5.772;2022-10-17T06:12:06;14.30;91.40
56478;DHT22;42382;53.210;5.772;2022-10-17T06:14:31;14.30;91.40
56478;DHT22;42382;53.210;5.772;2022-10-17T06:16:57;14.30;91.50
56478;DHT22;42382;53.210;5.772;2022-10-17T06:19:24;14.30;91.50
56478;DHT22;42382;53.210;5.772;2022-10-17T06:21:49;14.30;91.60
56478;DHT22;42382;53.210;5.772;2022-10-17T06:24:15;14.30;91.60
56478;DHT22;42382;53.210;5.772;2022-10-17T06:26:41;14.30;91.60
56478;DHT22;42382;53.210;5.772;2022-10-17T06:29:07;14.30;91.70
56478;DHT22;42382;53.210;5.772;2022-10-17T06:31:33;14.40;91.80
56478;DHT22;42382;53.210;5.772;2022-10-17T06:33:58;14.30;91.90
56478;DHT22;42382;53.210;5.772;2022-10-17T06:36:24;14.40;91.90
56478;DHT22;42382;53.210;5.772;2022-10-17T06:38:50;14.40;91.90
56478;DHT22;42382;53.210;5.772;2022-10-17T06:41:16;14.40;91.90
56478;DHT22;42382;53.210;5.772;2022-10-17T06:43:44;14.40;91.80
56478;DHT22;42382;53.210;5.772;2022-10-17T06:46:14;14.40;91.90
56478;DHT22;42382;53.210;5.772;2022-10-17T06:48:40;14.40;92.00
56478;DHT22;42382;53.210;5.772;2022-10-17T06:51:06;14.40;91.90
56478;DHT22;42382;53.210;5.772;2022-10-17T06:53:34;14.50;92.00
56478;DHT22;42382;53.210;5.772;2022-10-17T06:56:01;14.40;92.00
56478;DHT22;42382;53.210;5.772;2022-10-17T06:58:33;14.40;92.00
56478;DHT22;42382;53.210;5.772;2022-10-17T07:01:08;14.50;92.20
56478;DHT22;42382;53.210;5.772;2022-10-17T07:03:34;14.50;92.20
56478;DHT22;42382;53.210;5.772;2022-10-17T07:06:00;14.50;92.30
56478;DHT22;42382;53.210;5.772;2022-10-17T07:08:26;14.70;92.30
56478;DHT22;42382;53.210;5.772;2022-10-17T07:10:52;14.70;92.20
56478;DHT22;42382;53.210;5.772;2022-10-17T07:13:18;14.80;92.30
56478;DHT22;42382;53.210;5.772;2022-10-17T07:15:44;14.80;92.50
56478;DHT22;42382;53.210;5.772;2022-10-17T07:18:10;14.80;92.40
56478;DHT22;42382;53.210;5.772;2022-10-17T07:20:36;14.90;92.40
56478;DHT22;42382;53.210;5.772;2022-10-17T07:23:02;15.00;92.40
56478;DHT22;42382;53.210;5.772;2022-10-17T07:25:28;15.00;92.40
56478;DHT22;42382;53.210;5.772;2022-10-17T07:27:54;15.00;92.40
56478;DHT22;42382;53.210;5.772;2022-10-17T07:30:21;15.10;92.30
56478;DHT22;42382;53.210;5.772;2022-10-17T07:32:46;15.10;92.40
56478;DHT22;42382;53.210;5.772;2022-10-17T07:35:13;15.20;92.20
56478;DHT22;42382;53.210;5.772;2022-10-17T07:37:39;15.20;92.30
56478;DHT22;42382;53.210;5.772;2022-10-17T07:40:06;15.30;92.30
56478;DHT22;42382;53.210;5.772;2022-10-17T07:42:33;15.30;92.30
56478;DHT22;42382;53.210;5.772;2022-10-17T07:45:00;15.30;92.20
56478;DHT22;42382;53.210;5.772;2022-10-17T07:47:26;15.40;92.30
56478;DHT22;42382;53.210;5.772;2022-10-17T07:49:51;15.40;92.30
56478;DHT22;42382;53.210;5.772;2022-10-17T07:52:17;15.50;92.20
56478;DHT22;42382;53.210;5.772;2022-10-17T07:54:43;15.60;92.00
56478;DHT22;42382;53.210;5.772;2022-10-17T07:57:09;15.60;91.90
56478;DHT22;42382;53.210;5.772;2022-10-17T07:59:36;15.60;91.90
56478;DHT22;42382;53.210;5.772;2022-10-17T08:02:02;15.70;92.00
56478;DHT22;42382;53.210;5.772;2022-10-17T08:04:28;15.80;92.00
56478;DHT22;42382;53.210;5.772;2022-10-17T08:06:54;15.80;91.90
56478;DHT22;42382;53.210;5.772;2022-10-17T08:09:20;15.80;91.90
56478;DHT22;42382;53.210;5.772;2022-10-17T08:11:46;15.80;91.90
56478;DHT22;42382;53.210;5.772;2022-10-17T08:14:12;15.80;91.80
56478;DHT22;42382;53.210;5.772;2022-10-17T08:16:39;15.80;91.90
56478;DHT22;42382;53.210;5.772;2022-10-17T08:19:05;15.80;91.80
56478;DHT22;42382;53.210;5.772;2022-10-17T08:21:30;15.80;91.80
56478;DHT22;42382;53.210;5.772;2022-10-17T08:23:56;15.80;91.90
56478;DHT22;42382;53.210;5.772;2022-10-17T08:26:22;15.80;92.00
56478;DHT22;42382;53.210;5.772;2022-10-17T08:28:48;15.90;92.00
56478;DHT22;42382;53.210;5.772;2022-10-17T08:31:16;15.90;92.00
56478;DHT22;42382;53.210;5.772;2022-10-17T08:33:46;16.00;91.90
56478;DHT22;42382;53.210;5.772;2022-10-17T08:36:14;16.00;91.90
56478;DHT22;42382;53.210;5.772;2022-10-17T08:38:40;16.10;91.90
56478;DHT22;42382;53.210;5.772;2022-10-17T08:41:25;16.10;91.80
56478;DHT22;42382;53.210;5.772;2022-10-17T08:44:04;16.10;91.80
56478;DHT22;42382;53.210;5.772;2022-10-17T08:46:31;16.20;91.80
56478;DHT22;42382;53.210;5.772;2022-10-17T08:49:00;16.20;91.50
56478;DHT22;42382;53.210;5.772;2022-10-17T08:51:30;16.20;91.60
56478;DHT22;42382;53.210;5.772;2022-10-17T08:54:15;16.10;91.60
56478;DHT22;42382;53.210;5.772;2022-10-17T08:56:44;16.20;91.40
56478;DHT22;42382;53.210;5.772;2022-10-17T08:59:17;16.10;91.30
56478;DHT22;42382;53.210;5.772;2022-10-17T09:18:30;16.10;91.60
56478;DHT22;42382;53.210;5.772;2022-10-17T09:23:41;16.10;91.80
56478;DHT22;42382;53.210;5.772;2022-10-17T09:26:09;16.00;91.90
56478;DHT22;42382;53.210;5.772;2022-10-17T09:28:38;16.10;92.30
56478;DHT22;42382;53.210;5.772;2022-10-17T09:31:23;16.00;92.20
56478;DHT22;42382;53.210;5.772;2022-10-17T09:33:54;16.00;92.40
56478;DHT22;42382;53.210;5.772;2022-10-17T09:36:31;16.10;92.40
56478;DHT22;42382;53.210;5.772;2022-10-17T09:38:59;16.10;92.90
56478;DHT22;42382;53.210;5.772;2022-10-17T09:44:04;16.00;92.50
56478;DHT22;42382;53.210;5.772;2022-10-17T09:46:36;15.90;92.70
56478;DHT22;42382;53.210;5.772;2022-10-17T09:49:08;16.00;92.80
56478;DHT22;42382;53.210;5.772;2022-10-17T09:51:36;15.90;92.90
56478;DHT22;42382;53.210;5.772;2022-10-17T09:54:40;15.90;93.00
56478;DHT22;42382;53.210;5.772;2022-10-17T09:57:06;16.00;93.00
56478;DHT22;42382;53.210;5.772;2022-10-17T09:59:39;15.90;93.20
56478;DHT22;42382;53.210;5.772;2022-10-17T10:05:04;16.00;93.20
56478;DHT22;42382;53.210;5.772;2022-10-17T10:07:36;16.00;93.10
56478;DHT22;42382;53.210;5.772;2022-10-17T10:10:03;16.00;93.50
56478;DHT22;42382;53.210;5.772;2022-10-17T10:12:32;16.00;93.40
56478;DHT22;42382;53.210;5.772;2022-10-17T10:14:58;16.00;93.30
56478;DHT22;42382;53.210;5.772;2022-10-17T10:17:28;15.90;93.30
56478;DHT22;42382;53.210;5.772;2022-10-17T10:19:54;16.00;93.60
56478;DHT22;42382;53.210;5.772;2022-10-17T10:22:21;16.00;93.70
56478;DHT22;42382;53.210;5.772;2022-10-17T10:25:14;16.00;93.70
56478;DHT22;42382;53.210;5.772;2022-10-17T10:27:42;16.00;93.70
56478;DHT22;42382;53.210;5.772;2022-10-17T10:30:26;16.00;93.80
56478;DHT22;42382;53.210;5.772;2022-10-17T10:32:52;16.10;93.90
56478;DHT22;42382;53.210;5.772;2022-10-17T10:35:31;16.00;93.80
56478;DHT22;42382;53.210;5.772;2022-10-17T10:37:58;16.10;93.90
56478;DHT22;42382;53.210;5.772;2022-10-17T10:40:30;16.20;93.90
56478;DHT22;42382;53.210;5.772;2022-10-17T10:42:57;16.20;94.00
56478;DHT22;42382;53.210;5.772;2022-10-17T10:45:27;16.20;94.00
56478;DHT22;42382;53.210;5.772;2022-10-17T10:48:09;16.20;94.10
56478;DHT22;42382;53.210;5.772;2022-10-17T10:50:42;16.30;94.10
56478;DHT22;42382;53.210;5.772;2022-10-17T10:55:57;16.30;94.20
56478;DHT22;42382;53.210;5.772;2022-10-17T11:01:36;16.30;94.20
56478;DHT22;42382;53.210;5.772;2022-10-17T11:04:20;16.30;94.10
56478;DHT22;42382;53.210;5.772;2022-10-17T11:06:49;16.30;94.20
56478;DHT22;42382;53.210;5.772;2022-10-17T11:12:05;16.30;94.10
56478;DHT22;42382;53.210;5.772;2022-10-17T11:14:52;16.30;94.20
56478;DHT22;42382;53.210;5.772;2022-10-17T11:20:06;16.30;94.30
56478;DHT22;42382;53.210;5.772;2022-10-17T11:22:39;16.30;94.20
56478;DHT22;42382;53.210;5.772;2022-10-17T11:27:37;16.30;94.30
56478;DHT22;42382;53.210;5.772;2022-10-17T11:30:04;16.30;94.40
56478;DHT22;42382;53.210;5.772;2022-10-17T11:32:46;16.30;94.30
56478;DHT22;42382;53.210;5.772;2022-10-17T11:35:18;16.30;94.50
56478;DHT22;42382;53.210;5.772;2022-10-17T11:37:50;16.40;94.30
56478;DHT22;42382;53.210;5.772;2022-10-17T11:40:28;16.40;94.50
56478;DHT22;42382;53.210;5.772;2022-10-17T11:43:33;16.50;94.50
56478;DHT22;42382;53.210;5.772;2022-10-17T11:45:55;16.50;94.30
56478;DHT22;42382;53.210;5.772;2022-10-17T11:51:11;16.40;94.40
56478;DHT22;42382;53.210;5.772;2022-10-17T11:57:01;16.40;94.40
56478;DHT22;42382;53.210;5.772;2022-10-17T11:59:57;16.40;94.40
56478;DHT22;42382;53.210;5.772;2022-10-17T12:05:27;16.40;94.30
56478;DHT22;42382;53.210;5.772;2022-10-17T12:08:04;16.50;94.30
56478;DHT22;42382;53.210;5.772;2022-10-17T12:10:42;16.40;94.20
56478;DHT22;42382;53.210;5.772;2022-10-17T12:15:57;16.40;94.30
56478;DHT22;42382;53.210;5.772;2022-10-17T12:18:24;16.40;94.30
56478;DHT22;42382;53.210;5.772;2022-10-17T12:20:59;16.30;94.40
56478;DHT22;42382;53.210;5.772;2022-10-17T12:23:29;16.40;94.30
56478;DHT22;42382;53.210;5.772;2022-10-17T12:26:04;16.40;94.30
56478;DHT22;42382;53.210;5.772;2022-10-17T12:31:09;16.40;94.30
56478;DHT22;42382;53.210;5.772;2022-10-17T12:33:56;16.40;94.40
56478;DHT22;42382;53.210;5.772;2022-10-17T12:52:16;16.70;94.40
56478;DHT22;42382;53.210;5.772;2022-10-17T12:54:45;16.70;94.30
56478;DHT22;42382;53.210;5.772;2022-10-17T12:59:55;16.70;94.20
56478;DHT22;42382;53.210;5.772;2022-10-17T13:02:24;16.80;94.30
56478;DHT22;42382;53.210;5.772;2022-10-17T13:05:04;16.70;94.20
56478;DHT22;42382;53.210;5.772;2022-10-17T13:07:32;16.70;93.70
56478;DHT22;42382;53.210;5.772;2022-10-17T13:09:58;16.70;94.00
56478;DHT22;42382;53.210;5.772;2022-10-17T13:12:29;16.70;93.80
56478;DHT22;42382;53.210;5.772;2022-10-17T13:14:57;16.60;93.90
56478;DHT22;42382;53.210;5.772;2022-10-17T13:17:28;16.70;93.90
56478;DHT22;42382;53.210;5.772;2022-10-17T13:19:55;16.80;93.80
56478;DHT22;42382;53.210;5.772;2022-10-17T13:22:25;16.70;93.60
56478;DHT22;42382;53.210;5.772;2022-10-17T13:24:52;16.80;93.80
56478;DHT22;42382;53.210;5.772;2022-10-17T13:27:33;16.80;93.60
56478;DHT22;42382;53.210;5.772;2022-10-17T13:30:01;16.70;93.60
56478;DHT22;42382;53.210;5.772;2022-10-17T13:32:38;16.70;93.30
56478;DHT22;42382;53.210;5.772;2022-10-17T13:35:12;16.70;93.30
56478;DHT22;42382;53.210;5.772;2022-10-17T13:37:42;16.70;93.50
56478;DHT22;42382;53.210;5.772;2022-10-17T13:40:24;16.60;93.40
56478;DHT22;42382;53.210;5.772;2022-10-17T13:42:51;16.80;93.50
56478;DHT22;42382;53.210;5.772;2022-10-17T13:47:49;16.70;93.10
56478;DHT22;42382;53.210;5.772;2022-10-17T13:50:41;16.70;93.20
56478;DHT22;42382;53.210;5.772;2022-10-17T13:53:23;16.70;92.90
56478;DHT22;42382;53.210;5.772;2022-10-17T13:58:38;16.80;93.10
56478;DHT22;42382;53.210;5.772;2022-10-17T14:01:05;16.80;93.00
56478;DHT22;42382;53.210;5.772;2022-10-17T14:03:31;16.70;93.00
56478;DHT22;42382;53.210;5.772;2022-10-17T14:08:35;16.80;93.00
56478;DHT22;42382;53.210;5.772;2022-10-17T14:11:01;16.80;92.60
56478;DHT22;42382;53.210;5.772;2022-10-17T14:13:28;16.80;92.60
56478;DHT22;42382;53.210;5.772;2022-10-17T14:16:01;16.80;92.60
56478;DHT22;42382;53.210;5.772;2022-10-17T14:18:30;16.70;92.60
56478;DHT22;42382;53.210;5.772;2022-10-17T14:20:57;16.80;92.60
56478;DHT22;42382;53.210;5.772;2022-10-17T14:23:33;16.80;92.70
56478;DHT22;42382;53.210;5.772;2022-10-17T14:26:09;16.80;92.50
56478;DHT22;42382;53.210;5.772;2022-10-17T14:28:35;16.70;92.50
56478;DHT22;42382;53.210;5.772;2022-10-17T14:31:21;16.80;92.40
56478;DHT22;42382;53.210;5.772;2022-10-17T14:33:50;16.80;92.20
56478;DHT22;42382;53.210;5.772;2022-10-17T14:36:16;16.70;92.40
56478;DHT22;42382;53.210;5.772;2022-10-17T14:38:47;16.80;92.30
56478;DHT22;42382;53.210;5.772;2022-10-17T14:43:55;16.80;92.10
56478;DHT22;42382;53.210;5.772;2022-10-17T14:46:21;16.80;92.10
56478;DHT22;42382;53.210;5.772;2022-10-17T14:48:52;16.80;92.00
56478;DHT22;42382;53.210;5.772;2022-10-17T14:51:19;16.70;92.00
56478;DHT22;42382;53.210;5.772;2022-10-17T14:56:40;16.70;92.00
56478;DHT22;42382;53.210;5.772;2022-10-17T14:59:06;16.70;92.20
56478;DHT22;42382;53.210;5.772;2022-10-17T15:01:34;16.70;92.10
56478;DHT22;42382;53.210;5.772;2022-10-17T15:04:00;16.60;92.00
56478;DHT22;42382;53.210;5.772;2022-10-17T15:06:30;16.60;92.10
56478;DHT22;42382;53.210;5.772;2022-10-17T15:08:56;16.50;91.70
56478;DHT22;42382;53.210;5.772;2022-10-17T15:11:22;16.50;92.00
56478;DHT22;42382;53.210;5.772;2022-10-17T15:13:48;16.50;92.00
56478;DHT22;42382;53.210;5.772;2022-10-17T15:16:25;16.50;91.90
56478;DHT22;42382;53.210;5.772;2022-10-17T15:18:52;16.40;92.00
56478;DHT22;42382;53.210;5.772;2022-10-17T15:21:20;16.40;92.00
56478;DHT22;42382;53.210;5.772;2022-10-17T15:23:46;16.40;92.00
56478;DHT22;42382;53.210;5.772;2022-10-17T15:26:14;16.40;91.90
56478;DHT22;42382;53.210;5.772;2022-10-17T15:28:40;16.40;92.00
56478;DHT22;42382;53.210;5.772;2022-10-17T15:31:09;16.40;92.00
56478;DHT22;42382;53.210;5.772;2022-10-17T15:33:35;16.40;91.90
56478;DHT22;42382;53.210;5.772;2022-10-17T15:36:00;16.40;91.70
56478;DHT22;42382;53.210;5.772;2022-10-17T15:38:26;16.40;91.60
56478;DHT22;42382;53.210;5.772;2022-10-17T15:40:51;16.40;91.60
56478;DHT22;42382;53.210;5.772;2022-10-17T15:43:17;16.30;91.80
56478;DHT22;42382;53.210;5.772;2022-10-17T15:45:42;16.30;91.80
56478;DHT22;42382;53.210;5.772;2022-10-17T15:48:18;16.30;91.70
56478;DHT22;42382;53.210;5.772;2022-10-17T15:50:44;16.30;91.80
56478;DHT22;42382;53.210;5.772;2022-10-17T15:53:12;16.30;91.70
56478;DHT22;42382;53.210;5.772;2022-10-17T15:55:38;16.20;91.70
56478;DHT22;42382;53.210;5.772;2022-10-17T15:58:04;16.20;91.70
56478;DHT22;42382;53.210;5.772;2022-10-17T16:00:30;16.10;91.60
56478;DHT22;42382;53.210;5.772;2022-10-17T16:02:56;16.20;91.70
56478;DHT22;42382;53.210;5.772;2022-10-17T16:05:24;16.10;91.70
56478;DHT22;42382;53.210;5.772;2022-10-17T16:07:51;16.20;91.70
56478;DHT22;42382;53.210;5.772;2022-10-17T16:10:17;16.10;91.60
56478;DHT22;42382;53.210;5.772;2022-10-17T16:12:44;16.10;91.70
56478;DHT22;42382;53.210;5.772;2022-10-17T16:15:18;16.00;91.70
56478;DHT22;42382;53.210;5.772;2022-10-17T16:17:44;16.00;91.80
56478;DHT22;42382;53.210;5.772;2022-10-17T16:20:13;16.00;91.90
56478;DHT22;42382;53.210;5.772;2022-10-17T16:22:41;16.00;91.90
56478;DHT22;42382;53.210;5.772;2022-10-17T16:25:19;16.00;91.90
56478;DHT22;42382;53.210;5.772;2022-10-17T16:27:46;16.00;91.90
56478;DHT22;42382;53.210;5.772;2022-10-17T16:30:12;16.00;91.80
56478;DHT22;42382;53.210;5.772;2022-10-17T16:32:38;15.90;91.90
56478;DHT22;42382;53.210;5.772;2022-10-17T16:35:05;15.90;91.80
56478;DHT22;42382;53.210;5.772;2022-10-17T16:37:31;15.90;91.90
56478;DHT22;42382;53.210;5.772;2022-10-17T16:39:57;15.80;91.80
56478;DHT22;42382;53.210;5.772;2022-10-17T16:42:23;15.80;92.00
56478;DHT22;42382;53.210;5.772;2022-10-17T16:44:49;15.70;91.90
56478;DHT22;42382;53.210;5.772;2022-10-17T16:47:16;15.70;92.00
56478;DHT22;42382;53.210;5.772;2022-10-17T16:49:42;15.60;92.00
56478;DHT22;42382;53.210;5.772;2022-10-17T16:52:08;15.60;92.10
56478;DHT22;42382;53.210;5.772;2022-10-17T16:54:33;15.60;92.00
56478;DHT22;42382;53.210;5.772;2022-10-17T16:57:02;15.60;92.10
56478;DHT22;42382;53.210;5.772;2022-10-17T16:59:28;15.50;92.10
56478;DHT22;42382;53.210;5.772;2022-10-17T17:01:54;15.50;92.00
56478;DHT22;42382;53.210;5.772;2022-10-17T17:04:20;15.40;92.10
56478;DHT22;42382;53.210;5.772;2022-10-17T17:06:46;15.40;92.10
56478;DHT22;42382;53.210;5.772;2022-10-17T17:09:11;15.40;92.20
56478;DHT22;42382;53.210;5.772;2022-10-17T17:11:37;15.40;92.20
56478;DHT22;42382;53.210;5.772;2022-10-17T17:14:04;15.40;92.20
56478;DHT22;42382;53.210;5.772;2022-10-17T17:16:31;15.40;92.30
56478;DHT22;42382;53.210;5.772;2022-10-17T17:19:02;15.40;92.30
56478;DHT22;42382;53.210;5.772;2022-10-17T17:21:29;15.30;92.30
56478;DHT22;42382;53.210;5.772;2022-10-17T17:23:57;15.30;92.30
56478;DHT22;42382;53.210;5.772;2022-10-17T17:26:25;15.30;92.30
56478;DHT22;42382;53.210;5.772;2022-10-17T17:28:50;15.30;92.30
56478;DHT22;42382;53.210;5.772;2022-10-17T17:31:23;15.30;92.30
56478;DHT22;42382;53.210;5.772;2022-10-17T17:33:49;15.20;92.40
56478;DHT22;42382;53.210;5.772;2022-10-17T17:36:24;15.10;92.30
56478;DHT22;42382;53.210;5.772;2022-10-17T17:38:50;15.20;92.50
56478;DHT22;42382;53.210;5.772;2022-10-17T17:41:19;15.10;92.50